NKS1833 KDTW-KDFW
Flight info
| Callsign | NKS1833 |
|---|---|
| Flight time | 2h 27m |
| Altitude | 38000 |
| Route | SNDRS3 BGHRT STL RZC FSM RRNET SEEVR4 |
| Aircraft | A20N/M-SDE2E3FGHIRWXY/LB1 |
Departure
| Time | 2026-05-04 15:49 |
|---|---|
| Airport | Detroit Metropolitan Wayne County Airport (KDTW) |
Arrival
| Time | 2026-05-04 18:16 |
|---|---|
| Airport | Dallas Fort Worth International Airport (KDFW) |
| Time | Latitude | Longitude | Altitude | Speed | Heading |
|---|---|---|---|---|---|
| 2026-05-04 15:21 | 42.22518 | -83.34946 | 636 ft | 0 kts | 104° |
| 2026-05-04 15:39 | 42.22522 | -83.34967 | 649 ft | 2 kts | 109° |
| 2026-05-04 15:39 | 42.22528 | -83.34987 | 650 ft | 2 kts | 116° |
| 2026-05-04 15:39 | 42.22549 | -83.35021 | 650 ft | 2 kts | 161° |
| 2026-05-04 15:40 | 42.22565 | -83.35023 | 650 ft | 2 kts | 197° |
| 2026-05-04 15:40 | 42.22574 | -83.35019 | 650 ft | 1 kts | 208° |
| 2026-05-04 15:40 | 42.22575 | -83.35019 | 650 ft | 0 kts | 209° |
| 2026-05-04 15:41 | 42.22574 | -83.35019 | 650 ft | 1 kts | 209° |
| 2026-05-04 15:42 | 42.22554 | -83.35034 | 650 ft | 6 kts | 209° |
| 2026-05-04 15:42 | 42.22499 | -83.35074 | 649 ft | 12 kts | 208° |
| 2026-05-04 15:42 | 42.22427 | -83.35156 | 649 ft | 16 kts | 231° |
| 2026-05-04 15:42 | 42.22345 | -83.35288 | 649 ft | 19 kts | 223° |
| 2026-05-04 15:43 | 42.22221 | -83.35389 | 649 ft | 22 kts | 213° |
| 2026-05-04 15:43 | 42.22093 | -83.35494 | 648 ft | 22 kts | 210° |
| 2026-05-04 15:43 | 42.21959 | -83.35596 | 650 ft | 22 kts | 207° |
| 2026-05-04 15:43 | 42.21840 | -83.35653 | 647 ft | 12 kts | 161° |
| 2026-05-04 15:44 | 42.21831 | -83.35643 | 646 ft | 0 kts | 127° |
| 2026-05-04 15:44 | 42.21821 | -83.35589 | 648 ft | 5 kts | 83° |
| 2026-05-04 15:44 | 42.21820 | -83.35435 | 648 ft | 28 kts | 92° |
| 2026-05-04 15:44 | 42.21828 | -83.35144 | 648 ft | 32 kts | 88° |
| 2026-05-04 15:45 | 42.21829 | -83.34834 | 649 ft | 34 kts | 90° |
| 2026-05-04 15:45 | 42.21846 | -83.34519 | 649 ft | 32 kts | 68° |
| 2026-05-04 15:45 | 42.21881 | -83.34471 | 649 ft | 5 kts | 16° |
| 2026-05-04 15:45 | 42.21967 | -83.34420 | 648 ft | 22 kts | 30° |
| 2026-05-04 15:46 | 42.22260 | -83.34207 | 648 ft | 60 kts | 29° |
| 2026-05-04 15:46 | 42.22535 | -83.34001 | 649 ft | 18 kts | 29° |
| 2026-05-04 15:46 | 42.22615 | -83.33941 | 649 ft | 15 kts | 29° |
| 2026-05-04 15:46 | 42.22724 | -83.33863 | 649 ft | 20 kts | 27° |
| 2026-05-04 15:47 | 42.22836 | -83.33779 | 647 ft | 11 kts | 33° |
| 2026-05-04 15:47 | 42.22850 | -83.33757 | 645 ft | 5 kts | 61° |
| 2026-05-04 15:47 | 42.22823 | -83.33672 | 645 ft | 15 kts | 150° |
| 2026-05-04 15:47 | 42.22751 | -83.33679 | 645 ft | 0 kts | 200° |
| 2026-05-04 15:48 | 42.22748 | -83.33681 | 645 ft | 1 kts | 200° |
| 2026-05-04 15:48 | 42.22701 | -83.33711 | 646 ft | 26 kts | 208° |
| 2026-05-04 15:48 | 42.21609 | -83.34503 | 651 ft | 141 kts | 212° |
| 2026-05-04 15:49 | 42.20720 | -83.35194 | 1072 ft | 147 kts | 210° |
| 2026-05-04 15:49 | 42.19826 | -83.35855 | 1755 ft | 144 kts | 209° |
| 2026-05-04 15:49 | 42.18951 | -83.36440 | 2449 ft | 139 kts | 207° |
| 2026-05-04 15:49 | 42.17959 | -83.36838 | 2830 ft | 157 kts | 201° |
| 2026-05-04 15:50 | 42.16846 | -83.37231 | 3253 ft | 174 kts | 201° |
| 2026-05-04 15:50 | 42.15606 | -83.37692 | 3709 ft | 198 kts | 201° |
| 2026-05-04 15:50 | 42.14204 | -83.38221 | 4231 ft | 219 kts | 200° |
| 2026-05-04 15:50 | 42.12661 | -83.38797 | 4875 ft | 241 kts | 200° |
| 2026-05-04 15:51 | 42.11002 | -83.39417 | 5660 ft | 250 kts | 200° |
| 2026-05-04 15:51 | 42.09320 | -83.40047 | 6422 ft | 255 kts | 200° |
| 2026-05-04 15:51 | 42.07623 | -83.40842 | 6680 ft | 256 kts | 208° |
| 2026-05-04 15:51 | 42.06097 | -83.42019 | 6764 ft | 253 kts | 218° |
| 2026-05-04 15:52 | 42.04680 | -83.43443 | 6768 ft | 254 kts | 219° |
| 2026-05-04 15:52 | 42.03251 | -83.44869 | 6772 ft | 252 kts | 219° |
| 2026-05-04 15:52 | 42.01842 | -83.46258 | 6767 ft | 254 kts | 219° |
| 2026-05-04 15:52 | 42.00411 | -83.47661 | 6768 ft | 254 kts | 219° |
| 2026-05-04 15:53 | 41.98987 | -83.49054 | 6766 ft | 253 kts | 219° |
| 2026-05-04 15:53 | 41.97571 | -83.50472 | 6832 ft | 255 kts | 220° |
| 2026-05-04 15:53 | 41.97094 | -83.50966 | 6942 ft | 256 kts | 220° |
| 2026-05-04 15:54 | 41.90636 | -83.57686 | 10386 ft | 285 kts | 220° |
| 2026-05-04 15:54 | 41.88998 | -83.59382 | 10673 ft | 309 kts | 220° |
| 2026-05-04 15:55 | 41.87251 | -83.61181 | 11216 ft | 321 kts | 220° |
| 2026-05-04 15:55 | 41.85467 | -83.63012 | 11983 ft | 326 kts | 220° |
| 2026-05-04 15:55 | 41.83653 | -83.64873 | 12748 ft | 331 kts | 220° |
| 2026-05-04 15:55 | 41.81819 | -83.66756 | 13501 ft | 336 kts | 220° |
| 2026-05-04 15:56 | 41.79946 | -83.68678 | 14190 ft | 340 kts | 220° |
| 2026-05-04 15:56 | 41.78056 | -83.70616 | 14908 ft | 343 kts | 220° |
| 2026-05-04 15:56 | 41.76150 | -83.72569 | 15636 ft | 346 kts | 220° |
| 2026-05-04 15:56 | 41.74230 | -83.74535 | 16333 ft | 349 kts | 221° |
| 2026-05-04 15:57 | 41.72289 | -83.76521 | 17005 ft | 353 kts | 221° |
| 2026-05-04 15:57 | 41.70319 | -83.78528 | 17685 ft | 357 kts | 220° |
| 2026-05-04 15:57 | 41.68212 | -83.80343 | 18332 ft | 363 kts | 215° |
| 2026-05-04 15:57 | 41.66035 | -83.82081 | 18930 ft | 366 kts | 215° |
| 2026-05-04 15:58 | 41.63848 | -83.83834 | 19524 ft | 369 kts | 215° |
| 2026-05-04 15:58 | 41.61636 | -83.85608 | 20113 ft | 372 kts | 215° |
| 2026-05-04 15:58 | 41.59415 | -83.87392 | 20693 ft | 375 kts | 215° |
| 2026-05-04 15:58 | 41.57194 | -83.89174 | 21258 ft | 378 kts | 215° |
| 2026-05-04 15:59 | 41.54930 | -83.90988 | 21815 ft | 381 kts | 215° |
| 2026-05-04 15:59 | 41.52650 | -83.92814 | 22366 ft | 384 kts | 215° |
| 2026-05-04 15:59 | 41.50347 | -83.94657 | 22920 ft | 387 kts | 215° |
| 2026-05-04 15:59 | 41.48027 | -83.96512 | 23430 ft | 391 kts | 216° |
| 2026-05-04 16:00 | 41.45672 | -83.98394 | 23887 ft | 394 kts | 215° |
| 2026-05-04 16:00 | 41.43303 | -84.00285 | 24313 ft | 398 kts | 215° |
| 2026-05-04 16:00 | 41.40930 | -84.02177 | 24739 ft | 401 kts | 215° |
| 2026-05-04 16:00 | 41.38525 | -84.04092 | 25163 ft | 404 kts | 215° |
| 2026-05-04 16:01 | 41.36090 | -84.06030 | 25569 ft | 408 kts | 215° |
| 2026-05-04 16:01 | 41.33644 | -84.07974 | 25974 ft | 411 kts | 215° |
| 2026-05-04 16:01 | 41.31183 | -84.09929 | 26372 ft | 415 kts | 215° |
| 2026-05-04 16:01 | 41.28695 | -84.11909 | 26756 ft | 417 kts | 216° |
| 2026-05-04 16:02 | 41.26429 | -84.14223 | 27108 ft | 414 kts | 228° |
| 2026-05-04 16:02 | 41.24591 | -84.17146 | 27458 ft | 412 kts | 240° |
| 2026-05-04 16:02 | 41.22234 | -84.24052 | 28136 ft | 413 kts | 251° |
| 2026-05-04 16:03 | 41.21181 | -84.27614 | 28477 ft | 416 kts | 251° |
| 2026-05-04 16:03 | 41.20112 | -84.31204 | 28793 ft | 419 kts | 251° |
| 2026-05-04 16:03 | 41.19030 | -84.34819 | 29123 ft | 422 kts | 251° |
| 2026-05-04 16:03 | 41.17942 | -84.38443 | 29429 ft | 424 kts | 251° |
| 2026-05-04 16:04 | 41.16842 | -84.42104 | 29748 ft | 427 kts | 251° |
| 2026-05-04 16:04 | 41.14623 | -84.49464 | 30327 ft | 431 kts | 251° |
| 2026-05-04 16:04 | 41.13505 | -84.53165 | 30575 ft | 434 kts | 251° |
| 2026-05-04 16:05 | 41.12380 | -84.56888 | 30915 ft | 435 kts | 251° |
| 2026-05-04 16:05 | 41.11254 | -84.60608 | 31306 ft | 434 kts | 251° |
| 2026-05-04 16:05 | 41.09511 | -84.68188 | 32152 ft | 427 kts | 260° |
| 2026-05-04 16:06 | 41.08875 | -84.72033 | 32550 ft | 426 kts | 260° |
| 2026-05-04 16:06 | 41.07168 | -84.82182 | 33620 ft | 421 kts | 260° |
| 2026-05-04 16:07 | 41.06312 | -84.87223 | 34077 ft | 418 kts | 260° |
| 2026-05-04 16:07 | 41.04409 | -84.98393 | 34990 ft | 413 kts | 260° |
| 2026-05-04 16:08 | 41.03776 | -85.02093 | 35255 ft | 412 kts | 260° |
| 2026-05-04 16:08 | 41.01876 | -85.13156 | 36036 ft | 409 kts | 260° |
| 2026-05-04 16:09 | 41.00613 | -85.20469 | 36499 ft | 407 kts | 260° |
| 2026-05-04 16:09 | 40.99350 | -85.27758 | 36947 ft | 405 kts | 260° |
| 2026-05-04 16:10 | 40.98088 | -85.35017 | 37347 ft | 404 kts | 260° |
| 2026-05-04 16:11 | 40.96200 | -85.45821 | 37793 ft | 402 kts | 260° |
| 2026-05-04 16:11 | 40.95567 | -85.49426 | 37793 ft | 402 kts | 260° |
| 2026-05-04 16:12 | 40.91756 | -85.71005 | 37794 ft | 401 kts | 260° |
| 2026-05-04 16:13 | 40.89198 | -85.85345 | 37788 ft | 402 kts | 260° |
| 2026-05-04 16:14 | 40.87356 | -85.99886 | 37775 ft | 401 kts | 264° |
| 2026-05-04 16:16 | 40.85393 | -86.18143 | 37779 ft | 402 kts | 264° |
| 2026-05-04 16:17 | 40.83403 | -86.36350 | 37789 ft | 401 kts | 264° |
| 2026-05-04 16:18 | 40.81786 | -86.50943 | 37787 ft | 401 kts | 264° |
| 2026-05-04 16:19 | 40.79739 | -86.69168 | 37774 ft | 401 kts | 264° |
| 2026-05-04 16:20 | 40.77665 | -86.87377 | 37759 ft | 402 kts | 264° |
| 2026-05-04 16:22 | 40.75560 | -87.05596 | 37752 ft | 402 kts | 264° |
| 2026-05-04 16:23 | 40.72997 | -87.27435 | 37747 ft | 403 kts | 264° |
| 2026-05-04 16:25 | 40.70375 | -87.49402 | 37751 ft | 404 kts | 264° |
| 2026-05-04 16:26 | 40.67265 | -87.74996 | 37748 ft | 405 kts | 264° |
| 2026-05-04 16:28 | 40.64108 | -87.93053 | 37744 ft | 412 kts | 248° |
| 2026-05-04 16:28 | 40.58973 | -88.02251 | 37736 ft | 420 kts | 233° |
| 2026-05-04 16:29 | 40.51235 | -88.13704 | 37749 ft | 420 kts | 234° |
| 2026-05-04 16:31 | 40.41518 | -88.28013 | 37763 ft | 419 kts | 234° |
| 2026-05-04 16:32 | 40.29860 | -88.45088 | 37762 ft | 418 kts | 234° |
| 2026-05-04 16:33 | 40.22092 | -88.56413 | 37767 ft | 418 kts | 234° |
| 2026-05-04 16:34 | 40.16286 | -88.64850 | 37762 ft | 417 kts | 234° |
| 2026-05-04 16:35 | 40.04628 | -88.81722 | 37779 ft | 416 kts | 234° |
| 2026-05-04 16:36 | 39.98792 | -88.90134 | 37788 ft | 416 kts | 234° |
| 2026-05-04 16:37 | 39.93626 | -88.97558 | 37784 ft | 415 kts | 234° |
| 2026-05-04 16:38 | 39.85868 | -89.08677 | 37785 ft | 415 kts | 234° |
| 2026-05-04 16:39 | 39.76158 | -89.22537 | 37796 ft | 415 kts | 234° |
| 2026-05-04 16:40 | 39.68366 | -89.33612 | 37800 ft | 414 kts | 234° |
| 2026-05-04 16:41 | 39.58655 | -89.47362 | 37800 ft | 414 kts | 234° |
| 2026-05-04 16:43 | 39.48914 | -89.61092 | 37794 ft | 414 kts | 234° |
| 2026-05-04 16:43 | 39.43040 | -89.69341 | 37797 ft | 414 kts | 234° |
| 2026-05-04 16:45 | 39.31338 | -89.85709 | 37774 ft | 413 kts | 234° |
| 2026-05-04 16:46 | 39.21587 | -89.99284 | 37787 ft | 412 kts | 234° |
| 2026-05-04 16:47 | 39.13684 | -90.10255 | 37800 ft | 422 kts | 233° |
| 2026-05-04 16:48 | 39.05689 | -90.21293 | 37806 ft | 421 kts | 233° |
| 2026-05-04 16:49 | 38.97727 | -90.32254 | 37793 ft | 420 kts | 233° |
| 2026-05-04 16:50 | 38.89731 | -90.43227 | 37802 ft | 421 kts | 233° |
| 2026-05-04 16:51 | 38.83775 | -90.51489 | 37797 ft | 419 kts | 234° |
| 2026-05-04 16:52 | 38.77439 | -90.60901 | 37800 ft | 419 kts | 235° |
| 2026-05-04 16:53 | 38.70487 | -90.71123 | 37809 ft | 419 kts | 234° |
| 2026-05-04 16:54 | 38.62818 | -90.82326 | 37800 ft | 419 kts | 234° |
| 2026-05-04 16:55 | 38.51269 | -90.99126 | 37795 ft | 419 kts | 234° |
| 2026-05-04 16:56 | 38.41640 | -91.13061 | 37817 ft | 418 kts | 235° |
| 2026-05-04 16:57 | 38.35866 | -91.21389 | 37825 ft | 418 kts | 235° |
| 2026-05-04 16:58 | 38.28186 | -91.32431 | 37824 ft | 417 kts | 235° |
| 2026-05-04 17:00 | 38.16654 | -91.48944 | 37802 ft | 416 kts | 235° |
| 2026-05-04 17:01 | 38.07040 | -91.62644 | 37781 ft | 415 kts | 235° |
| 2026-05-04 17:02 | 37.99331 | -91.73589 | 37781 ft | 415 kts | 235° |
| 2026-05-04 17:03 | 37.93548 | -91.81772 | 37789 ft | 415 kts | 236° |
| 2026-05-04 17:03 | 37.87784 | -91.89909 | 37791 ft | 415 kts | 236° |
| 2026-05-04 17:04 | 37.80056 | -92.00786 | 37800 ft | 415 kts | 236° |
| 2026-05-04 17:05 | 37.72330 | -92.11624 | 37798 ft | 415 kts | 236° |
| 2026-05-04 17:06 | 37.66529 | -92.19740 | 37805 ft | 415 kts | 236° |
| 2026-05-04 17:07 | 37.61384 | -92.26918 | 37791 ft | 414 kts | 236° |
| 2026-05-04 17:07 | 37.56858 | -92.33220 | 37806 ft | 414 kts | 236° |
| 2026-05-04 17:08 | 37.51069 | -92.41264 | 37810 ft | 414 kts | 236° |
| 2026-05-04 17:09 | 37.47195 | -92.46636 | 37814 ft | 414 kts | 236° |
| 2026-05-04 17:09 | 37.43318 | -92.52002 | 37813 ft | 414 kts | 236° |
| 2026-05-04 17:10 | 37.33635 | -92.65365 | 37815 ft | 413 kts | 237° |
| 2026-05-04 17:11 | 37.29782 | -92.70668 | 37810 ft | 413 kts | 237° |
| 2026-05-04 17:12 | 37.23969 | -92.78650 | 37821 ft | 412 kts | 237° |
| 2026-05-04 17:13 | 37.14292 | -92.91896 | 37825 ft | 411 kts | 237° |
| 2026-05-04 17:14 | 37.06577 | -93.02417 | 37828 ft | 410 kts | 238° |
| 2026-05-04 17:15 | 37.00755 | -93.10334 | 37826 ft | 410 kts | 238° |
| 2026-05-04 17:16 | 36.93068 | -93.20758 | 37848 ft | 408 kts | 238° |
| 2026-05-04 17:17 | 36.85370 | -93.31165 | 37844 ft | 407 kts | 239° |
| 2026-05-04 17:18 | 36.77718 | -93.41477 | 37854 ft | 405 kts | 239° |
| 2026-05-04 17:19 | 36.70050 | -93.51777 | 37859 ft | 404 kts | 239° |
| 2026-05-04 17:20 | 36.62392 | -93.62032 | 37854 ft | 404 kts | 239° |
| 2026-05-04 17:20 | 36.56650 | -93.69701 | 37846 ft | 403 kts | 240° |
| 2026-05-04 17:21 | 36.49000 | -93.79886 | 37861 ft | 402 kts | 240° |
| 2026-05-04 17:22 | 36.45179 | -93.84966 | 37869 ft | 402 kts | 240° |
| 2026-05-04 17:23 | 36.37555 | -93.95071 | 37888 ft | 402 kts | 240° |
| 2026-05-04 17:24 | 36.31820 | -94.02659 | 37895 ft | 401 kts | 240° |
| 2026-05-04 17:24 | 36.25574 | -94.09784 | 37912 ft | 426 kts | 225° |
| 2026-05-04 17:25 | 36.22912 | -94.11557 | 37912 ft | 442 kts | 217° |
| 2026-05-04 17:25 | 36.16750 | -94.13574 | 37920 ft | 474 kts | 201° |
| 2026-05-04 17:26 | 36.10217 | -94.14686 | 37917 ft | 474 kts | 201° |
| 2026-05-04 17:27 | 35.93848 | -94.17557 | 37913 ft | 474 kts | 201° |
| 2026-05-04 17:28 | 35.80842 | -94.19836 | 37900 ft | 474 kts | 202° |
| 2026-05-04 17:29 | 35.62307 | -94.23070 | 37890 ft | 475 kts | 202° |
| 2026-05-04 17:31 | 35.45903 | -94.25921 | 37912 ft | 476 kts | 202° |
| 2026-05-04 17:31 | 35.37029 | -94.29588 | 37909 ft | 425 kts | 228° |
| 2026-05-04 17:32 | 35.32562 | -94.33921 | 37907 ft | 403 kts | 237° |
| 2026-05-04 17:33 | 35.24194 | -94.43048 | 37916 ft | 405 kts | 237° |
| 2026-05-04 17:34 | 35.15747 | -94.52184 | 37929 ft | 406 kts | 237° |
| 2026-05-04 17:35 | 35.05169 | -94.63588 | 37933 ft | 405 kts | 237° |
| 2026-05-04 17:36 | 35.00946 | -94.68125 | 37931 ft | 404 kts | 237° |
| 2026-05-04 17:36 | 34.96754 | -94.72632 | 37931 ft | 404 kts | 237° |
| 2026-05-04 17:37 | 34.92541 | -94.77151 | 37927 ft | 403 kts | 237° |
| 2026-05-04 17:37 | 34.88331 | -94.81662 | 37917 ft | 403 kts | 237° |
| 2026-05-04 17:38 | 34.84112 | -94.86173 | 37909 ft | 403 kts | 237° |
| 2026-05-04 17:38 | 34.79880 | -94.90647 | 37903 ft | 405 kts | 236° |
| 2026-05-04 17:39 | 34.73387 | -94.97241 | 37903 ft | 405 kts | 236° |
| 2026-05-04 17:39 | 34.69070 | -95.01634 | 37900 ft | 404 kts | 236° |
| 2026-05-04 17:40 | 34.64755 | -95.06030 | 37909 ft | 405 kts | 236° |
| 2026-05-04 17:40 | 34.60470 | -95.10392 | 37896 ft | 405 kts | 236° |
| 2026-05-04 17:41 | 34.56139 | -95.14792 | 37907 ft | 405 kts | 236° |
| 2026-05-04 17:41 | 34.51819 | -95.19175 | 37911 ft | 405 kts | 236° |
| 2026-05-04 17:42 | 34.47492 | -95.23560 | 37903 ft | 405 kts | 236° |
| 2026-05-04 17:42 | 34.43157 | -95.27939 | 37905 ft | 406 kts | 236° |
| 2026-05-04 17:43 | 34.38813 | -95.32314 | 37911 ft | 406 kts | 236° |
| 2026-05-04 17:43 | 34.34469 | -95.36686 | 37914 ft | 407 kts | 236° |
| 2026-05-04 17:44 | 34.30132 | -95.41046 | 37593 ft | 408 kts | 236° |
| 2026-05-04 17:44 | 34.27921 | -95.43264 | 37327 ft | 407 kts | 235° |
| 2026-05-04 17:44 | 34.25739 | -95.45453 | 37069 ft | 408 kts | 235° |
| 2026-05-04 17:45 | 34.23552 | -95.47649 | 36559 ft | 411 kts | 235° |
| 2026-05-04 17:45 | 34.21370 | -95.49844 | 35779 ft | 416 kts | 234° |
| 2026-05-04 17:45 | 34.19138 | -95.52082 | 35086 ft | 417 kts | 234° |
| 2026-05-04 17:45 | 34.16888 | -95.54331 | 34344 ft | 419 kts | 234° |
| 2026-05-04 17:46 | 34.14631 | -95.56583 | 33496 ft | 422 kts | 233° |
| 2026-05-04 17:46 | 34.12381 | -95.58827 | 32779 ft | 420 kts | 233° |
| 2026-05-04 17:46 | 34.10119 | -95.61086 | 31942 ft | 422 kts | 232° |
| 2026-05-04 17:46 | 34.07857 | -95.63344 | 31146 ft | 423 kts | 231° |
| 2026-05-04 17:47 | 34.05587 | -95.65606 | 30482 ft | 423 kts | 230° |
| 2026-05-04 17:47 | 34.03319 | -95.67860 | 30069 ft | 424 kts | 230° |
| 2026-05-04 17:47 | 34.01033 | -95.70130 | 29453 ft | 424 kts | 230° |
| 2026-05-04 17:47 | 33.98791 | -95.72349 | 28889 ft | 421 kts | 230° |
| 2026-05-04 17:48 | 33.96515 | -95.74599 | 28309 ft | 415 kts | 229° |
| 2026-05-04 17:48 | 33.94297 | -95.76798 | 27745 ft | 410 kts | 229° |
| 2026-05-04 17:48 | 33.92121 | -95.78974 | 27188 ft | 405 kts | 229° |
| 2026-05-04 17:48 | 33.89993 | -95.81109 | 26630 ft | 401 kts | 229° |
| 2026-05-04 17:49 | 33.87855 | -95.83252 | 26081 ft | 397 kts | 229° |
| 2026-05-04 17:49 | 33.85742 | -95.85368 | 25538 ft | 394 kts | 229° |
| 2026-05-04 17:49 | 33.83652 | -95.87458 | 24996 ft | 390 kts | 228° |
| 2026-05-04 17:49 | 33.81564 | -95.89538 | 24414 ft | 389 kts | 228° |
| 2026-05-04 17:50 | 33.79474 | -95.91605 | 23903 ft | 386 kts | 227° |
| 2026-05-04 17:50 | 33.77400 | -95.93650 | 23272 ft | 385 kts | 227° |
| 2026-05-04 17:50 | 33.75344 | -95.95675 | 22779 ft | 380 kts | 227° |
| 2026-05-04 17:50 | 33.73308 | -95.97677 | 22239 ft | 375 kts | 227° |
| 2026-05-04 17:51 | 33.71296 | -95.99657 | 21705 ft | 371 kts | 227° |
| 2026-05-04 17:51 | 33.69305 | -96.01618 | 21178 ft | 368 kts | 226° |
| 2026-05-04 17:51 | 33.67330 | -96.03562 | 20646 ft | 365 kts | 226° |
| 2026-05-04 17:51 | 33.65399 | -96.05462 | 20127 ft | 363 kts | 226° |
| 2026-05-04 17:52 | 33.63429 | -96.07400 | 19599 ft | 360 kts | 226° |
| 2026-05-04 17:52 | 33.61523 | -96.09275 | 19078 ft | 359 kts | 226° |
| 2026-05-04 17:52 | 33.59595 | -96.11170 | 18554 ft | 358 kts | 225° |
| 2026-05-04 17:52 | 33.57667 | -96.13062 | 17985 ft | 356 kts | 225° |
| 2026-05-04 17:53 | 33.55752 | -96.14938 | 17468 ft | 353 kts | 225° |
| 2026-05-04 17:53 | 33.53859 | -96.16792 | 16944 ft | 351 kts | 225° |
| 2026-05-04 17:53 | 33.51968 | -96.18641 | 16433 ft | 348 kts | 225° |
| 2026-05-04 17:53 | 33.50096 | -96.20473 | 15952 ft | 345 kts | 225° |
| 2026-05-04 17:54 | 33.48231 | -96.22298 | 15422 ft | 349 kts | 225° |
| 2026-05-04 17:54 | 33.46357 | -96.24130 | 15099 ft | 343 kts | 224° |
| 2026-05-04 17:54 | 33.44578 | -96.25944 | 14821 ft | 332 kts | 229° |
| 2026-05-04 17:54 | 33.43049 | -96.27969 | 14542 ft | 322 kts | 234° |
| 2026-05-04 17:55 | 33.41602 | -96.29990 | 14173 ft | 319 kts | 234° |
| 2026-05-04 17:55 | 33.40151 | -96.31997 | 13703 ft | 319 kts | 234° |
| 2026-05-04 17:55 | 33.38698 | -96.33995 | 13260 ft | 317 kts | 234° |
| 2026-05-04 17:55 | 33.37254 | -96.35979 | 12821 ft | 314 kts | 233° |
| 2026-05-04 17:56 | 33.35829 | -96.37939 | 12397 ft | 311 kts | 233° |
| 2026-05-04 17:56 | 33.34425 | -96.39867 | 12136 ft | 302 kts | 233° |
| 2026-05-04 17:56 | 33.33162 | -96.41792 | 11821 ft | 288 kts | 241° |
| 2026-05-04 17:56 | 33.32235 | -96.43869 | 11533 ft | 279 kts | 250° |
| 2026-05-04 17:57 | 33.31606 | -96.46017 | 11384 ft | 268 kts | 255° |
| 2026-05-04 17:57 | 33.31025 | -96.48148 | 11163 ft | 273 kts | 254° |
| 2026-05-04 17:57 | 33.30428 | -96.50299 | 10960 ft | 275 kts | 254° |
| 2026-05-04 17:57 | 33.29833 | -96.52417 | 10825 ft | 266 kts | 253° |
| 2026-05-04 17:58 | 33.29242 | -96.54506 | 10508 ft | 263 kts | 253° |
| 2026-05-04 17:58 | 33.28770 | -96.56603 | 10152 ft | 261 kts | 261° |
| 2026-05-04 17:58 | 33.28600 | -96.58762 | 9736 ft | 261 kts | 268° |
| 2026-05-04 17:58 | 33.28520 | -96.60917 | 9468 ft | 256 kts | 266° |
| 2026-05-04 17:59 | 33.28429 | -96.63016 | 9210 ft | 252 kts | 266° |
| 2026-05-04 17:59 | 33.28334 | -96.65104 | 8813 ft | 252 kts | 266° |
| 2026-05-04 17:59 | 33.28144 | -96.69206 | 8048 ft | 251 kts | 265° |
| 2026-05-04 18:00 | 33.28047 | -96.71288 | 7750 ft | 249 kts | 265° |
| 2026-05-04 18:00 | 33.27951 | -96.73345 | 7348 ft | 249 kts | 264° |
| 2026-05-04 18:00 | 33.27852 | -96.75422 | 7026 ft | 248 kts | 264° |
| 2026-05-04 18:00 | 33.27757 | -96.77446 | 6861 ft | 239 kts | 264° |
| 2026-05-04 18:01 | 33.27664 | -96.79418 | 6597 ft | 236 kts | 264° |
| 2026-05-04 18:01 | 33.27573 | -96.81347 | 6310 ft | 235 kts | 264° |
| 2026-05-04 18:01 | 33.27480 | -96.83295 | 5935 ft | 236 kts | 263° |
| 2026-05-04 18:02 | 33.27321 | -96.87175 | 5356 ft | 231 kts | 264° |
| 2026-05-04 18:02 | 33.27261 | -96.89041 | 5045 ft | 231 kts | 264° |
| 2026-05-04 18:02 | 33.27204 | -96.90942 | 4758 ft | 228 kts | 263° |
| 2026-05-04 18:02 | 33.27144 | -96.92822 | 4462 ft | 226 kts | 263° |
| 2026-05-04 18:03 | 33.27083 | -96.94706 | 4084 ft | 229 kts | 262° |
| 2026-05-04 18:03 | 33.27015 | -96.96615 | 3760 ft | 230 kts | 262° |
| 2026-05-04 18:03 | 33.26952 | -96.98534 | 3461 ft | 232 kts | 262° |
| 2026-05-04 18:03 | 33.26891 | -97.00465 | 3212 ft | 232 kts | 262° |
| 2026-05-04 18:04 | 33.26829 | -97.02379 | 3009 ft | 227 kts | 261° |
| 2026-05-04 18:04 | 33.26763 | -97.04280 | 2958 ft | 232 kts | 261° |
| 2026-05-04 18:04 | 33.26636 | -97.08132 | 2971 ft | 229 kts | 262° |
| 2026-05-04 18:05 | 33.26574 | -97.10014 | 2952 ft | 228 kts | 261° |
| 2026-05-04 18:05 | 33.26516 | -97.11853 | 2958 ft | 215 kts | 261° |
| 2026-05-04 18:05 | 33.26463 | -97.13571 | 2970 ft | 199 kts | 260° |
| 2026-05-04 18:05 | 33.26402 | -97.15234 | 2961 ft | 201 kts | 261° |
| 2026-05-04 18:06 | 33.25687 | -97.18241 | 2960 ft | 185 kts | 216° |
| 2026-05-04 18:06 | 33.24606 | -97.19056 | 2957 ft | 186 kts | 208° |
| 2026-05-04 18:06 | 33.23460 | -97.19810 | 2979 ft | 186 kts | 208° |
| 2026-05-04 18:07 | 33.22333 | -97.20557 | 2982 ft | 181 kts | 208° |
| 2026-05-04 18:07 | 33.21232 | -97.21175 | 2971 ft | 168 kts | 196° |
| 2026-05-04 18:07 | 33.20140 | -97.21479 | 2942 ft | 158 kts | 193° |
| 2026-05-04 18:07 | 33.19014 | -97.21761 | 2984 ft | 171 kts | 193° |
| 2026-05-04 18:08 | 33.17861 | -97.22044 | 2961 ft | 165 kts | 193° |
| 2026-05-04 18:08 | 33.16757 | -97.22313 | 2961 ft | 161 kts | 193° |
| 2026-05-04 18:08 | 33.15645 | -97.22591 | 2979 ft | 168 kts | 193° |
| 2026-05-04 18:08 | 33.14507 | -97.22882 | 2989 ft | 167 kts | 193° |
| 2026-05-04 18:09 | 33.12308 | -97.23442 | 2963 ft | 163 kts | 193° |
| 2026-05-04 18:09 | 33.10033 | -97.24017 | 2964 ft | 163 kts | 193° |
| 2026-05-04 18:10 | 33.08937 | -97.24286 | 2959 ft | 160 kts | 193° |
| 2026-05-04 18:10 | 33.07831 | -97.24544 | 2944 ft | 164 kts | 187° |
| 2026-05-04 18:10 | 33.06709 | -97.24345 | 2956 ft | 168 kts | 163° |
| 2026-05-04 18:10 | 33.05676 | -97.23596 | 2940 ft | 176 kts | 148° |
| 2026-05-04 18:11 | 33.04763 | -97.22641 | 2959 ft | 177 kts | 144° |
| 2026-05-04 18:11 | 33.03841 | -97.21662 | 2934 ft | 174 kts | 146° |
| 2026-05-04 18:11 | 33.02929 | -97.20719 | 2944 ft | 175 kts | 147° |
| 2026-05-04 18:11 | 33.02018 | -97.19779 | 2953 ft | 173 kts | 146° |
| 2026-05-04 18:12 | 33.01108 | -97.18831 | 2953 ft | 176 kts | 146° |
| 2026-05-04 18:12 | 33.00208 | -97.17895 | 2957 ft | 169 kts | 146° |
| 2026-05-04 18:12 | 32.99300 | -97.16960 | 2764 ft | 174 kts | 145° |
| 2026-05-04 18:12 | 32.98401 | -97.16025 | 2518 ft | 171 kts | 145° |
| 2026-05-04 18:13 | 32.97519 | -97.15117 | 2308 ft | 169 kts | 145° |
| 2026-05-04 18:13 | 32.96591 | -97.14155 | 2061 ft | 175 kts | 144° |
| 2026-05-04 18:13 | 32.94972 | -97.12472 | 1656 ft | 133 kts | 146° |
| 2026-05-04 18:14 | 32.94312 | -97.11793 | 1449 ft | 119 kts | 144° |
| 2026-05-04 18:14 | 32.93699 | -97.11154 | 1290 ft | 121 kts | 146° |
| 2026-05-04 18:14 | 32.93048 | -97.10496 | 1140 ft | 124 kts | 146° |
| 2026-05-04 18:15 | 32.91743 | -97.09096 | 841 ft | 124 kts | 156° |
| 2026-05-04 18:15 | 32.90464 | -97.07802 | 602 ft | 111 kts | 144° |
| 2026-05-04 18:15 | 32.89960 | -97.07295 | 594 ft | 80 kts | 139° |
| 2026-05-04 18:16 | 32.89606 | -97.06922 | 593 ft | 57 kts | 144° |
| 2026-05-04 18:16 | 32.89342 | -97.06655 | 588 ft | 45 kts | 143° |
| 2026-05-04 18:16 | 32.89196 | -97.06502 | 586 ft | 40 kts | 137° |
| 2026-05-04 18:17 | 32.89167 | -97.06293 | 589 ft | 0 kts | 48° |
| 2026-05-04 18:17 | 32.89180 | -97.06212 | 590 ft | 17 kts | 115° |
| 2026-05-04 18:18 | 32.89176 | -97.06146 | 591 ft | 10 kts | 69° |
| 2026-05-04 18:18 | 32.89164 | -97.06055 | 591 ft | 15 kts | 129° |
| 2026-05-04 18:18 | 32.88950 | -97.05836 | 597 ft | 41 kts | 144° |
| 2026-05-04 18:18 | 32.89050 | -97.05950 | 595 ft | 0 kts | 139° |
| 2026-05-04 18:19 | 32.89136 | -97.05797 | 599 ft | 26 kts | 4° |
| 2026-05-04 18:19 | 32.89379 | -97.05781 | 598 ft | 15 kts | 37° |
| 2026-05-04 18:19 | 32.89405 | -97.05640 | 599 ft | 20 kts | 90° |
| 2026-05-04 18:20 | 32.89405 | -97.05605 | 600 ft | 0 kts | 90° |
| 2026-05-04 18:20 | 32.89405 | -97.05596 | 600 ft | 2 kts | 90° |